createdAt,value
2022-12-31T00:02:28.614Z,98715.53
2022-12-31T00:05:19.593Z,98719.03
2022-12-31T00:08:08.892Z,98719.22
2022-12-31T00:10:58.265Z,98723.81
2022-12-31T00:13:48.159Z,98725.81
2022-12-31T00:16:40.305Z,98723.09
2022-12-31T00:19:29.566Z,98732.50
2022-12-31T00:22:20.181Z,98736.19
2022-12-31T00:25:10.994Z,98730.72
2022-12-31T00:28:00.265Z,98718.66
2022-12-31T00:30:49.603Z,98727.94
2022-12-31T00:33:39.754Z,98726.34
2022-12-31T00:36:32.173Z,98722.91
2022-12-31T00:39:22.751Z,98723.69
2022-12-31T00:42:11.998Z,98717.72
2022-12-31T00:45:01.226Z,98719.38
2022-12-31T00:47:50.468Z,98722.13
2022-12-31T00:50:39.797Z,98722.84
2022-12-31T00:53:30.323Z,98733.38
2022-12-31T00:56:23.822Z,98728.28
2022-12-31T00:59:13.037Z,98727.16
2022-12-31T01:02:02.402Z,98723.53
2022-12-31T01:04:52.123Z,98724.00
2022-12-31T01:07:41.454Z,98736.47
2022-12-31T01:10:48.408Z,98731.72
2022-12-31T01:13:39.027Z,98730.47
2022-12-31T01:16:32.638Z,98741.84
2022-12-31T01:19:25.262Z,98732.44
2022-12-31T01:22:14.489Z,98736.72
2022-12-31T01:25:03.680Z,98741.75
2022-12-31T01:27:52.915Z,98733.09
2022-12-31T01:30:43.564Z,98737.94
2022-12-31T01:33:32.764Z,98748.97
2022-12-31T01:36:26.586Z,98738.41
2022-12-31T01:39:16.129Z,98754.78
2022-12-31T01:42:05.821Z,98743.09
2022-12-31T01:44:57.032Z,98744.19
2022-12-31T01:47:51.786Z,98753.09
2022-12-31T01:50:43.033Z,98744.13
2022-12-31T01:53:32.991Z,98744.13
2022-12-31T01:56:24.875Z,98740.19
2022-12-31T01:59:16.597Z,98734.00
2022-12-31T02:02:06.952Z,98728.56
2022-12-31T02:05:01.422Z,98723.81
2022-12-31T02:07:52.051Z,98726.97
2022-12-31T02:10:41.353Z,98735.50
2022-12-31T02:13:30.605Z,98733.09
2022-12-31T02:16:28.584Z,98734.63
2022-12-31T02:19:56.830Z,98729.16
2022-12-31T02:23:30.406Z,98710.25
2022-12-31T02:26:54.808Z,98723.63
2022-12-31T02:30:11.351Z,98716.59
2022-12-31T02:33:16.078Z,98710.25
2022-12-31T02:36:10.992Z,98705.94
2022-12-31T02:39:00.803Z,98717.56
2022-12-31T02:41:54.026Z,98721.31
2022-12-31T02:44:43.739Z,98721.31
2022-12-31T02:47:51.386Z,98716.91
2022-12-31T02:50:56.456Z,98711.47
2022-12-31T02:54:21.374Z,98716.13
2022-12-31T02:57:17.672Z,98723.97
2022-12-31T03:00:26.822Z,98722.28
2022-12-31T03:03:18.384Z,98721.06
2022-12-31T03:06:10.763Z,98738.28
2022-12-31T03:09:16.319Z,98730.13
2022-12-31T03:12:25.379Z,98713.31
2022-12-31T03:15:21.483Z,98699.16
2022-12-31T03:18:14.174Z,98693.19
2022-12-31T03:21:30.886Z,98699.56
2022-12-31T03:24:37.462Z,98687.81
2022-12-31T03:27:29.230Z,98688.16
2022-12-31T03:30:20.390Z,98704.88
2022-12-31T03:33:10.353Z,98704.75
2022-12-31T03:35:59.722Z,98715.00
2022-12-31T03:38:52.802Z,98713.72
2022-12-31T03:41:42.102Z,98715.78
2022-12-31T03:44:31.514Z,98721.56
2022-12-31T03:47:20.881Z,98703.59
2022-12-31T03:50:12.941Z,98719.28
2022-12-31T03:53:02.522Z,98724.00
2022-12-31T03:55:54.757Z,98708.81
2022-12-31T03:58:44.005Z,98711.38
2022-12-31T04:01:34.097Z,98703.97
2022-12-31T04:04:23.676Z,98689.78
2022-12-31T04:07:13.192Z,98700.09
2022-12-31T04:10:02.682Z,98685.97
2022-12-31T04:12:53.339Z,98705.13
2022-12-31T04:15:42.599Z,98697.72
2022-12-31T04:18:31.837Z,98689.13
2022-12-31T04:21:21.162Z,98697.28
2022-12-31T04:24:10.726Z,98709.78
2022-12-31T04:27:07.039Z,98695.16
2022-12-31T04:29:58.002Z,98684.34
2022-12-31T04:32:47.216Z,98672.66
2022-12-31T04:35:36.467Z,98667.56
2022-12-31T04:38:25.749Z,98657.09
2022-12-31T04:41:18.090Z,98678.91
2022-12-31T04:44:07.405Z,98694.81
2022-12-31T04:46:58.091Z,98707.66
2022-12-31T04:49:47.322Z,98712.31
2022-12-31T04:52:42.429Z,98712.75
2022-12-31T04:55:31.854Z,98720.94
2022-12-31T04:58:21.595Z,98716.91
2022-12-31T05:01:11.467Z,98733.34
2022-12-31T05:04:02.189Z,98729.56
2022-12-31T05:06:51.528Z,98724.44
2022-12-31T05:09:40.909Z,98736.25
2022-12-31T05:12:30.101Z,98742.75
2022-12-31T05:15:19.381Z,98761.16
2022-12-31T05:18:09.152Z,98757.50
2022-12-31T05:21:00.239Z,98764.31
2022-12-31T05:23:50.298Z,98759.22
2022-12-31T05:26:39.552Z,98747.59
2022-12-31T05:29:28.906Z,98731.25
2022-12-31T05:32:18.400Z,98733.34
2022-12-31T05:35:09.003Z,98759.56
2022-12-31T05:38:01.193Z,98773.19
2022-12-31T05:40:50.389Z,98755.06
2022-12-31T05:43:39.637Z,98775.03
2022-12-31T05:46:29.576Z,98781.25
2022-12-31T05:49:18.879Z,98774.81
2022-12-31T05:52:08.499Z,98787.84
2022-12-31T05:54:59.895Z,98787.50
2022-12-31T05:57:49.224Z,98781.69
2022-12-31T06:00:38.497Z,98771.94
2022-12-31T06:03:27.821Z,98775.91
2022-12-31T06:06:17.143Z,98792.59
2022-12-31T06:09:06.488Z,98801.13
2022-12-31T06:11:57.282Z,98792.41
2022-12-31T06:14:46.590Z,98793.75
2022-12-31T06:17:35.794Z,98776.16
2022-12-31T06:20:25.048Z,98785.69
2022-12-31T06:23:14.306Z,98795.00
2022-12-31T06:26:03.759Z,98801.25
2022-12-31T06:28:54.532Z,98792.59
2022-12-31T06:31:43.832Z,98794.88
2022-12-31T06:34:33.138Z,98807.03
2022-12-31T06:37:22.477Z,98803.50
2022-12-31T06:40:13.383Z,98812.81
2022-12-31T06:43:03.211Z,98812.03
2022-12-31T06:45:53.853Z,98823.38
2022-12-31T06:48:44.860Z,98820.13
2022-12-31T06:51:34.186Z,98826.91
2022-12-31T06:54:23.629Z,98823.28
2022-12-31T06:57:13.873Z,98826.47
2022-12-31T07:00:05.566Z,98827.25
2022-12-31T07:03:20.907Z,98833.59
2022-12-31T07:06:14.904Z,98835.53
2022-12-31T07:09:13.523Z,98814.22
2022-12-31T07:12:13.915Z,98827.00
2022-12-31T07:15:12.806Z,98816.19
2022-12-31T07:18:16.203Z,98806.09
2022-12-31T07:21:09.195Z,98807.94
2022-12-31T07:23:59.160Z,98797.72
2022-12-31T07:27:09.559Z,98812.94
2022-12-31T07:30:07.820Z,98815.13
2022-12-31T07:33:35.796Z,98824.31
2022-12-31T07:36:48.190Z,98838.84
2022-12-31T07:39:46.821Z,98834.53
2022-12-31T07:42:46.268Z,98824.09
2022-12-31T07:45:45.190Z,98851.78
2022-12-31T07:48:36.791Z,98850.19
2022-12-31T07:51:28.902Z,98837.72
2022-12-31T07:54:18.254Z,98841.59
2022-12-31T07:57:07.686Z,98836.00
2022-12-31T08:00:08.038Z,98836.13
2022-12-31T08:03:25.159Z,98825.09
2022-12-31T08:06:26.677Z,98812.97
2022-12-31T08:09:38.237Z,98818.06
2022-12-31T08:12:30.618Z,98820.91
2022-12-31T08:15:26.862Z,98832.63
2022-12-31T08:18:19.998Z,98823.66
2022-12-31T08:21:29.459Z,98808.44
2022-12-31T08:24:35.892Z,98798.91
2022-12-31T08:27:35.386Z,98811.47
2022-12-31T08:30:29.352Z,98807.88
2022-12-31T08:33:27.525Z,98822.28
2022-12-31T08:36:30.710Z,98813.31
2022-12-31T08:39:35.038Z,98829.13
2022-12-31T08:42:32.455Z,98838.44
2022-12-31T08:45:29.595Z,98833.22
2022-12-31T08:48:32.035Z,98855.94
2022-12-31T08:51:25.681Z,98832.78
2022-12-31T08:54:15.725Z,98842.31
2022-12-31T08:57:16.243Z,98840.81
2022-12-31T09:00:12.452Z,98845.13
2022-12-31T09:03:27.131Z,98829.13
2022-12-31T09:06:28.349Z,98816.19
2022-12-31T09:09:33.265Z,98814.34
2022-12-31T09:12:30.869Z,98822.53
2022-12-31T09:15:29.311Z,98828.53
2022-12-31T09:18:19.235Z,98836.00
2022-12-31T09:21:11.345Z,98821.94
2022-12-31T09:24:09.141Z,98827.16
2022-12-31T09:27:11.925Z,98818.06
2022-12-31T09:30:06.056Z,98826.81
2022-12-31T09:33:03.143Z,98811.16
2022-12-31T09:35:56.443Z,98828.50
2022-12-31T09:39:06.798Z,98829.75
2022-12-31T09:42:51.000Z,98834.13
2022-12-31T09:45:58.313Z,98818.59
2022-12-31T09:49:57.556Z,98823.78
2022-12-31T09:53:08.236Z,98836.63
2022-12-31T09:56:06.538Z,98843.44
2022-12-31T09:59:07.058Z,98853.97
2022-12-31T10:02:03.854Z,98846.94
2022-12-31T10:05:25.425Z,98843.78
2022-12-31T10:08:29.788Z,98857.63
2022-12-31T10:11:30.612Z,98859.88
2022-12-31T10:14:47.121Z,98851.00
2022-12-31T10:17:55.918Z,98853.94
2022-12-31T10:20:59.273Z,98841.34
2022-12-31T10:24:01.296Z,98863.13
2022-12-31T10:27:22.382Z,98871.28
2022-12-31T10:30:18.393Z,98871.28
2022-12-31T10:33:18.141Z,98880.78
2022-12-31T10:36:15.458Z,98858.53
2022-12-31T10:39:22.180Z,98866.00
2022-12-31T10:43:05.061Z,98874.06
2022-12-31T10:46:37.229Z,98862.88
2022-12-31T10:50:04.424Z,98853.53
2022-12-31T10:53:29.665Z,98841.59
2022-12-31T10:57:22.197Z,98842.38
2022-12-31T11:00:19.902Z,98819.03
2022-12-31T11:04:13.429Z,98839.66
2022-12-31T11:07:41.317Z,98838.72
2022-12-31T11:10:58.059Z,98850.84
2022-12-31T11:14:49.390Z,98839.94
2022-12-31T11:17:54.885Z,98830.72
2022-12-31T11:21:09.287Z,98825.94
2022-12-31T11:24:13.654Z,98827.69
2022-12-31T11:27:24.729Z,98834.47
2022-12-31T11:30:24.611Z,98819.25
2022-12-31T11:33:28.938Z,98810.88
2022-12-31T11:36:29.873Z,98814.31
2022-12-31T11:39:41.022Z,98806.53
2022-12-31T11:42:45.424Z,98782.69
2022-12-31T11:46:02.295Z,98798.25
2022-12-31T11:49:12.919Z,98797.53
2022-12-31T11:52:43.500Z,98789.84
2022-12-31T11:55:47.610Z,98780.16
2022-12-31T11:58:37.129Z,98768.69
2022-12-31T12:01:31.962Z,98777.31
2022-12-31T12:04:22.825Z,98769.22
2022-12-31T12:07:15.837Z,98773.69
2022-12-31T12:10:18.192Z,98769.81
2022-12-31T12:13:23.261Z,98784.41
2022-12-31T12:16:12.727Z,98782.03
2022-12-31T12:19:09.325Z,98768.59
2022-12-31T12:22:10.361Z,98783.78
2022-12-31T12:25:06.836Z,98765.19
2022-12-31T12:27:56.343Z,98763.16
2022-12-31T12:30:46.212Z,98738.06
2022-12-31T12:33:46.561Z,98745.31
2022-12-31T12:36:35.887Z,98742.88
2022-12-31T12:39:30.556Z,98734.66
2022-12-31T12:42:19.796Z,98741.97
2022-12-31T12:45:17.973Z,98727.88
2022-12-31T12:48:19.631Z,98730.22
2022-12-31T12:51:28.696Z,98731.84
2022-12-31T12:54:39.325Z,98735.03
2022-12-31T12:57:35.902Z,98738.84
2022-12-31T13:00:34.769Z,98740.84
2022-12-31T13:07:25.938Z,98717.13
2022-12-31T13:10:38.150Z,98702.22
2022-12-31T13:13:38.023Z,98723.34
2022-12-31T13:16:40.116Z,98714.97
2022-12-31T13:19:37.796Z,98734.66
2022-12-31T13:22:34.925Z,98724.44
2022-12-31T13:25:33.979Z,98726.94
2022-12-31T13:28:26.608Z,98718.00
2022-12-31T13:31:23.237Z,98720.72
2022-12-31T13:34:19.212Z,98710.19
2022-12-31T13:37:26.485Z,98712.63
2022-12-31T13:40:25.981Z,98703.75
2022-12-31T13:43:29.283Z,98716.00
2022-12-31T13:46:27.996Z,98710.19
2022-12-31T13:49:24.115Z,98695.31
2022-12-31T13:52:35.913Z,98696.63
2022-12-31T13:55:34.832Z,98690.72
2022-12-31T13:58:37.334Z,98714.38
2022-12-31T14:01:35.369Z,98715.41
2022-12-31T14:04:36.793Z,98734.31
2022-12-31T14:07:43.449Z,98735.38
2022-12-31T14:11:02.522Z,98735.84
2022-12-31T14:14:11.961Z,98721.38
2022-12-31T14:17:14.334Z,98708.09
2022-12-31T14:20:19.907Z,98714.25
2022-12-31T14:23:23.031Z,98710.25
2022-12-31T14:26:23.041Z,98714.59
2022-12-31T14:29:30.939Z,98703.50
2022-12-31T14:33:03.830Z,98720.84
2022-12-31T14:36:11.340Z,98719.28
2022-12-31T14:39:21.329Z,98735.38
2022-12-31T14:42:25.736Z,98726.97
2022-12-31T14:45:36.028Z,98732.97
2022-12-31T14:48:41.361Z,98737.59
2022-12-31T14:51:32.660Z,98747.72
2022-12-31T14:54:30.690Z,98737.16
2022-12-31T14:57:28.839Z,98738.75
2022-12-31T15:00:35.487Z,98730.19
2022-12-31T15:03:33.874Z,98736.34
2022-12-31T15:06:52.052Z,98748.00
2022-12-31T15:10:12.621Z,98750.28
2022-12-31T15:13:08.878Z,98741.63
2022-12-31T15:16:43.669Z,98716.47
2022-12-31T15:20:16.703Z,98719.94
2022-12-31T15:23:21.632Z,98721.03
2022-12-31T15:26:24.402Z,98728.81
2022-12-31T15:29:27.869Z,98734.16
2022-12-31T15:32:23.951Z,98750.47
2022-12-31T15:35:30.756Z,98742.09
2022-12-31T15:38:37.067Z,98751.22
2022-12-31T15:41:38.669Z,98758.25
2022-12-31T15:44:34.006Z,98754.03
2022-12-31T15:47:31.840Z,98765.97
2022-12-31T15:50:25.102Z,98763.00
2022-12-31T15:53:27.741Z,98774.31
2022-12-31T15:56:23.038Z,98789.22
2022-12-31T15:59:16.301Z,98795.06
2022-12-31T16:02:05.654Z,98812.63
2022-12-31T16:04:57.676Z,98801.59
2022-12-31T16:07:47.530Z,98792.19
2022-12-31T16:10:37.417Z,98780.28
2022-12-31T16:13:29.178Z,98786.22
2022-12-31T16:16:24.748Z,98775.91
2022-12-31T16:19:31.779Z,98780.59
2022-12-31T16:22:29.481Z,98785.19
2022-12-31T16:25:31.018Z,98786.66
2022-12-31T16:28:24.677Z,98786.94
2022-12-31T16:31:18.943Z,98798.88
2022-12-31T16:34:14.703Z,98808.41
2022-12-31T16:37:06.287Z,98802.47
2022-12-31T16:40:21.505Z,98814.13
2022-12-31T16:43:29.165Z,98808.94
2022-12-31T16:46:23.069Z,98812.34
2022-12-31T16:49:21.404Z,98811.84
2022-12-31T16:52:28.463Z,98808.69
2022-12-31T16:55:22.753Z,98821.19
2022-12-31T16:58:20.901Z,98814.06
2022-12-31T17:01:19.104Z,98810.63
2022-12-31T17:04:13.710Z,98807.75
2022-12-31T17:07:37.264Z,98815.22
2022-12-31T17:10:35.143Z,98810.09
2022-12-31T17:13:30.931Z,98807.66
2022-12-31T17:16:20.791Z,98816.28
2022-12-31T17:19:39.005Z,98820.94
2022-12-31T17:22:36.922Z,98829.88
2022-12-31T17:25:31.278Z,98814.41
2022-12-31T17:28:24.355Z,98842.59
2022-12-31T17:31:36.240Z,98824.81
2022-12-31T17:34:30.638Z,98846.75
2022-12-31T17:37:25.052Z,98826.59
2022-12-31T17:40:50.768Z,98832.06
2022-12-31T17:43:41.373Z,98842.72
2022-12-31T17:46:30.919Z,98822.97
2022-12-31T17:49:31.682Z,98840.53
2022-12-31T17:52:20.921Z,98848.91
2022-12-31T17:55:10.132Z,98845.66
2022-12-31T17:58:06.231Z,98845.56
2022-12-31T18:00:56.187Z,98831.56
2022-12-31T18:03:45.710Z,98841.19
2022-12-31T18:06:35.010Z,98840.66
2022-12-31T18:09:24.726Z,98842.16
2022-12-31T18:12:15.723Z,98848.22
2022-12-31T18:15:09.223Z,98844.78
2022-12-31T18:17:58.565Z,98851.41
2022-12-31T18:20:49.114Z,98849.72
2022-12-31T18:23:42.611Z,98842.22
2022-12-31T18:26:32.736Z,98838.97
2022-12-31T18:29:23.703Z,98855.09
2022-12-31T18:32:23.779Z,98860.13
2022-12-31T18:35:48.677Z,98859.56
2022-12-31T18:38:26.401Z,98879.53
2022-12-31T18:41:21.320Z,98881.47
2022-12-31T18:44:14.963Z,98894.34
2022-12-31T18:47:04.600Z,98883.53
2022-12-31T18:49:55.292Z,98890.56
2022-12-31T18:52:44.906Z,98908.00
2022-12-31T18:55:40.326Z,98913.94
2022-12-31T18:58:29.541Z,98917.47
2022-12-31T19:01:29.032Z,98900.97
2022-12-31T19:04:27.584Z,98905.03
2022-12-31T19:07:18.553Z,98904.31
2022-12-31T19:10:08.836Z,98897.38
2022-12-31T19:12:58.169Z,98910.56
2022-12-31T19:15:50.098Z,98908.91
2022-12-31T19:18:39.315Z,98911.38
2022-12-31T19:21:28.580Z,98907.84
2022-12-31T19:24:21.986Z,98900.72
2022-12-31T19:27:17.089Z,98901.88
2022-12-31T19:30:08.005Z,98900.72
2022-12-31T19:32:57.662Z,98900.09
2022-12-31T19:35:47.897Z,98917.34
2022-12-31T19:38:37.201Z,98927.13
2022-12-31T19:41:27.893Z,98916.91
2022-12-31T19:44:19.207Z,98923.59
2022-12-31T19:47:12.965Z,98921.94
2022-12-31T19:50:02.275Z,98933.38
2022-12-31T19:52:55.259Z,98931.00
2022-12-31T19:55:44.907Z,98929.84
2022-12-31T19:58:35.558Z,98935.31
2022-12-31T20:01:26.599Z,98929.34
2022-12-31T20:04:15.878Z,98934.09
2022-12-31T20:07:05.189Z,98927.22
2022-12-31T20:09:54.416Z,98904.78
2022-12-31T20:12:44.767Z,98921.34
2022-12-31T20:15:35.709Z,98918.94
2022-12-31T20:18:25.066Z,98925.19
2022-12-31T20:21:17.999Z,98920.34
2022-12-31T20:24:08.043Z,98910.56
2022-12-31T20:26:57.333Z,98928.19
2022-12-31T20:29:47.171Z,98923.69
2022-12-31T20:32:38.120Z,98939.94
2022-12-31T20:35:27.362Z,98941.09
2022-12-31T20:38:17.022Z,98937.09
2022-12-31T20:41:08.125Z,98952.91
2022-12-31T20:43:57.464Z,98961.91
2022-12-31T20:46:46.752Z,98954.38
2022-12-31T20:50:09.865Z,98946.56
2022-12-31T20:52:51.389Z,98952.56
2022-12-31T20:55:42.487Z,98947.28
2022-12-31T20:58:32.376Z,98942.97
2022-12-31T21:01:22.762Z,98948.31
2022-12-31T21:04:13.926Z,98947.41
2022-12-31T21:07:06.999Z,98951.38
2022-12-31T21:09:57.015Z,98953.31
2022-12-31T21:12:53.761Z,98959.13
2022-12-31T21:15:43.773Z,98955.97
2022-12-31T21:18:33.799Z,98953.22
2022-12-31T21:21:24.752Z,98961.31
2022-12-31T21:24:23.255Z,98952.66
2022-12-31T21:27:16.518Z,98959.63
2022-12-31T21:30:19.023Z,98956.09
2022-12-31T21:33:09.786Z,98965.44
2022-12-31T21:36:04.823Z,98957.72
2022-12-31T21:38:54.372Z,98959.41
2022-12-31T21:41:55.071Z,98968.28
2022-12-31T21:44:45.221Z,98967.03
2022-12-31T21:47:52.142Z,98958.31
2022-12-31T21:50:42.554Z,98974.69
2022-12-31T21:53:36.933Z,98975.69
2022-12-31T21:56:26.360Z,98972.09
2022-12-31T21:59:34.371Z,98979.00
2022-12-31T22:02:59.702Z,98984.00
2022-12-31T22:05:53.926Z,98982.88
2022-12-31T22:08:45.696Z,98989.38
2022-12-31T22:11:35.073Z,98997.19
2022-12-31T22:14:25.814Z,99014.91
2022-12-31T22:17:15.244Z,99006.16
2022-12-31T22:20:26.410Z,99019.53
2022-12-31T22:23:16.038Z,99022.63
2022-12-31T22:26:06.597Z,99023.53
2022-12-31T22:28:59.524Z,99026.28
2022-12-31T22:31:50.768Z,99021.03
2022-12-31T22:34:40.161Z,99017.88
2022-12-31T22:37:56.384Z,99029.66
2022-12-31T22:40:38.861Z,99013.78
2022-12-31T22:43:28.210Z,99031.84
2022-12-31T22:46:19.744Z,99030.03
2022-12-31T22:49:12.437Z,99037.16
2022-12-31T22:52:04.358Z,99031.84
2022-12-31T22:54:58.200Z,99042.06
2022-12-31T22:57:47.642Z,99048.06
2022-12-31T23:00:42.138Z,99046.72
2022-12-31T23:03:31.660Z,99058.41
2022-12-31T23:06:25.317Z,99060.78
2022-12-31T23:09:34.155Z,99058.88
2022-12-31T23:12:23.491Z,99071.38
2022-12-31T23:15:30.118Z,99076.38
2022-12-31T23:18:36.802Z,99076.50
2022-12-31T23:21:44.920Z,99090.66
2022-12-31T23:24:34.202Z,99079.53
2022-12-31T23:27:23.680Z,99065.00
2022-12-31T23:30:14.609Z,99093.66
2022-12-31T23:33:03.916Z,99109.66
2022-12-31T23:36:05.126Z,99095.78
2022-12-31T23:38:57.596Z,99097.03
2022-12-31T23:41:46.887Z,99111.00
2022-12-31T23:44:36.188Z,99121.00
2022-12-31T23:47:25.444Z,99119.09
2022-12-31T23:50:14.702Z,99119.41
2022-12-31T23:53:03.895Z,99118.47
2022-12-31T23:55:54.621Z,99142.16
2022-12-31T23:58:44.108Z,99128.72
